Almira, Washington
Current Conditions -  °F | °C
As of 3:00 AM on Saturday 01 Nov 2014 (Local Time) from KEPH Reporting Station
Haze Haze  
Wind Chill:   Ceiling: 800
Heat Index:   Visibility: 4mi
Dew Point:   Wind: 6mph
Humidity: 93%   Direction: 20°NNE
Pressure: 29.75"   Gusts: NA
Location:  47.71°N, 118.94°W
Report Text: KEPH 011000Z AUTO 02005KT 4SM BR BKN008 OVC020 08/07 A2975 RMK AO2 CIG 007V011 T00830072
Loading
Personal Weather Stations






























Interactive Weather Map
Tropical Storm Tracking
New forecast layout! Learn more

10-Day Weather Forecast

Advertisements
Track Severe Weather on mobile